sensor_id;sensor_type;location;lat;lon;timestamp;P1;durP1;ratioP1;P2;durP2;ratioP2
40355;SDS011;26061;50.044;19.930;2023-03-21T00:03:20;39.53;;;21.63;;
40355;SDS011;26061;50.044;19.930;2023-03-21T00:06:40;39.67;;;20.90;;
40355;SDS011;26061;50.044;19.930;2023-03-21T00:09:41;40.38;;;21.65;;
40355;SDS011;26061;50.044;19.930;2023-03-21T00:12:52;34.85;;;19.80;;
40355;SDS011;26061;50.044;19.930;2023-03-21T00:15:52;35.20;;;20.13;;
40355;SDS011;26061;50.044;19.930;2023-03-21T00:19:15;41.30;;;22.48;;
40355;SDS011;26061;50.044;19.930;2023-03-21T00:22:40;37.72;;;22.08;;
40355;SDS011;26061;50.044;19.930;2023-03-21T00:26:05;36.63;;;20.27;;
40355;SDS011;26061;50.044;19.930;2023-03-21T00:29:06;38.55;;;19.92;;
40355;SDS011;26061;50.044;19.930;2023-03-21T00:32:31;34.60;;;19.80;;
40355;SDS011;26061;50.044;19.930;2023-03-21T00:35:37;35.17;;;19.45;;
40355;SDS011;26061;50.044;19.930;2023-03-21T00:39:02;36.33;;;20.08;;
40355;SDS011;26061;50.044;19.930;2023-03-21T00:42:02;37.75;;;19.38;;
40355;SDS011;26061;50.044;19.930;2023-03-21T00:44:28;33.88;;;19.30;;
40355;SDS011;26061;50.044;19.930;2023-03-21T00:47:34;34.40;;;19.33;;
40355;SDS011;26061;50.044;19.930;2023-03-21T00:50:58;32.67;;;19.33;;
40355;SDS011;26061;50.044;19.930;2023-03-21T00:54:23;38.88;;;20.58;;
40355;SDS011;26061;50.044;19.930;2023-03-21T00:57:47;38.40;;;20.20;;
40355;SDS011;26061;50.044;19.930;2023-03-21T01:01:11;35.67;;;20.90;;
40355;SDS011;26061;50.044;19.930;2023-03-21T01:04:39;36.95;;;20.55;;
40355;SDS011;26061;50.044;19.930;2023-03-21T01:08:23;33.53;;;19.25;;
40355;SDS011;26061;50.044;19.930;2023-03-21T01:11:02;33.25;;;20.20;;
40355;SDS011;26061;50.044;19.930;2023-03-21T01:14:27;36.95;;;20.85;;
40355;SDS011;26061;50.044;19.930;2023-03-21T01:17:51;35.42;;;20.23;;
40355;SDS011;26061;50.044;19.930;2023-03-21T01:21:16;33.20;;;19.13;;
40355;SDS011;26061;50.044;19.930;2023-03-21T01:24:40;33.40;;;17.42;;
40355;SDS011;26061;50.044;19.930;2023-03-21T01:28:04;34.70;;;18.63;;
40355;SDS011;26061;50.044;19.930;2023-03-21T01:31:05;32.05;;;18.33;;
40355;SDS011;26061;50.044;19.930;2023-03-21T01:34:05;30.27;;;18.00;;
40355;SDS011;26061;50.044;19.930;2023-03-21T01:37:29;31.50;;;17.63;;
40355;SDS011;26061;50.044;19.930;2023-03-21T01:40:54;31.35;;;17.23;;
40355;SDS011;26061;50.044;19.930;2023-03-21T01:44:09;30.73;;;17.00;;
40355;SDS011;26061;50.044;19.930;2023-03-21T01:47:29;35.47;;;18.43;;
40355;SDS011;26061;50.044;19.930;2023-03-21T01:50:54;27.73;;;16.67;;
40355;SDS011;26061;50.044;19.930;2023-03-21T01:54:22;29.42;;;16.92;;
40355;SDS011;26061;50.044;19.930;2023-03-21T01:57:48;30.98;;;17.45;;
40355;SDS011;26061;50.044;19.930;2023-03-21T02:01:06;30.65;;;18.05;;
40355;SDS011;26061;50.044;19.930;2023-03-21T02:04:37;30.58;;;17.10;;
40355;SDS011;26061;50.044;19.930;2023-03-21T02:07:14;30.80;;;17.30;;
40355;SDS011;26061;50.044;19.930;2023-03-21T02:10:38;30.27;;;17.27;;
40355;SDS011;26061;50.044;19.930;2023-03-21T02:14:03;35.27;;;19.67;;
40355;SDS011;26061;50.044;19.930;2023-03-21T02:24:13;28.43;;;17.13;;
40355;SDS011;26061;50.044;19.930;2023-03-21T02:27:41;27.23;;;16.37;;
40355;SDS011;26061;50.044;19.930;2023-03-21T02:46:17;26.02;;;14.85;;
40355;SDS011;26061;50.044;19.930;2023-03-21T02:50:25;29.00;;;16.73;;
40355;SDS011;26061;50.044;19.930;2023-03-21T02:53:45;32.08;;;16.73;;
40355;SDS011;26061;50.044;19.930;2023-03-21T02:57:13;25.67;;;15.37;;
40355;SDS011;26061;50.044;19.930;2023-03-21T03:00:41;27.00;;;15.50;;
40355;SDS011;26061;50.044;19.930;2023-03-21T03:04:18;26.93;;;16.13;;
40355;SDS011;26061;50.044;19.930;2023-03-21T03:14:55;34.50;;;19.13;;
40355;SDS011;26061;50.044;19.930;2023-03-21T03:25:05;40.60;;;21.13;;
40355;SDS011;26061;50.044;19.930;2023-03-21T03:28:45;34.88;;;20.20;;
40355;SDS011;26061;50.044;19.930;2023-03-21T03:31:28;34.90;;;19.33;;
40355;SDS011;26061;50.044;19.930;2023-03-21T03:34:18;36.45;;;19.27;;
40355;SDS011;26061;50.044;19.930;2023-03-21T03:37:47;34.53;;;19.20;;
40355;SDS011;26061;50.044;19.930;2023-03-21T03:41:26;37.57;;;19.80;;
40355;SDS011;26061;50.044;19.930;2023-03-21T03:44:55;41.13;;;19.57;;
40355;SDS011;26061;50.044;19.930;2023-03-21T03:48:29;35.05;;;19.42;;
40355;SDS011;26061;50.044;19.930;2023-03-21T03:52:17;38.93;;;19.90;;
40355;SDS011;26061;50.044;19.930;2023-03-21T03:55:55;37.50;;;20.97;;
40355;SDS011;26061;50.044;19.930;2023-03-21T03:59:20;40.93;;;21.43;;
40355;SDS011;26061;50.044;19.930;2023-03-21T04:02:45;44.00;;;21.47;;
40355;SDS011;26061;50.044;19.930;2023-03-21T04:06:11;37.97;;;19.35;;
40355;SDS011;26061;50.044;19.930;2023-03-21T04:09:35;41.40;;;20.80;;
40355;SDS011;26061;50.044;19.930;2023-03-21T04:13:00;42.77;;;21.13;;
40355;SDS011;26061;50.044;19.930;2023-03-21T04:16:23;38.70;;;20.27;;
40355;SDS011;26061;50.044;19.930;2023-03-21T04:19:47;46.30;;;21.42;;
40355;SDS011;26061;50.044;19.930;2023-03-21T04:23:12;38.97;;;19.73;;
40355;SDS011;26061;50.044;19.930;2023-03-21T04:26:38;39.47;;;18.97;;
40355;SDS011;26061;50.044;19.930;2023-03-21T04:30:02;40.27;;;20.70;;
40355;SDS011;26061;50.044;19.930;2023-03-21T04:33:29;47.17;;;21.38;;
40355;SDS011;26061;50.044;19.930;2023-03-21T04:36:48;43.47;;;21.60;;
40355;SDS011;26061;50.044;19.930;2023-03-21T04:40:13;42.35;;;20.50;;
40355;SDS011;26061;50.044;19.930;2023-03-21T04:43:34;42.10;;;21.17;;
40355;SDS011;26061;50.044;19.930;2023-03-21T04:46:55;40.43;;;21.20;;
40355;SDS011;26061;50.044;19.930;2023-03-21T04:50:19;39.37;;;19.73;;
40355;SDS011;26061;50.044;19.930;2023-03-21T04:53:10;47.57;;;21.17;;
40355;SDS011;26061;50.044;19.930;2023-03-21T04:56:34;40.05;;;21.15;;
40355;SDS011;26061;50.044;19.930;2023-03-21T04:59:58;43.63;;;19.95;;
40355;SDS011;26061;50.044;19.930;2023-03-21T05:03:22;47.78;;;19.27;;
40355;SDS011;26061;50.044;19.930;2023-03-21T05:06:47;40.63;;;18.05;;
40355;SDS011;26061;50.044;19.930;2023-03-21T05:10:11;43.03;;;20.00;;
40355;SDS011;26061;50.044;19.930;2023-03-21T05:13:35;41.00;;;19.23;;
40355;SDS011;26061;50.044;19.930;2023-03-21T05:17:00;40.93;;;19.93;;
40355;SDS011;26061;50.044;19.930;2023-03-21T05:20:39;43.57;;;19.77;;
40355;SDS011;26061;50.044;19.930;2023-03-21T05:24:06;43.13;;;19.07;;
40355;SDS011;26061;50.044;19.930;2023-03-21T05:27:32;42.70;;;19.90;;
40355;SDS011;26061;50.044;19.930;2023-03-21T05:31:04;48.03;;;20.80;;
40355;SDS011;26061;50.044;19.930;2023-03-21T05:34:29;43.00;;;20.00;;
40355;SDS011;26061;50.044;19.930;2023-03-21T05:37:52;46.20;;;19.33;;
40355;SDS011;26061;50.044;19.930;2023-03-21T05:41:17;44.63;;;19.80;;
40355;SDS011;26061;50.044;19.930;2023-03-21T05:44:42;40.30;;;19.10;;
40355;SDS011;26061;50.044;19.930;2023-03-21T05:47:56;42.00;;;20.47;;
40355;SDS011;26061;50.044;19.930;2023-03-21T05:51:20;41.50;;;19.02;;
40355;SDS011;26061;50.044;19.930;2023-03-21T05:54:45;43.07;;;18.97;;
40355;SDS011;26061;50.044;19.930;2023-03-21T05:58:09;41.17;;;18.53;;
40355;SDS011;26061;50.044;19.930;2023-03-21T06:01:33;40.90;;;19.37;;
40355;SDS011;26061;50.044;19.930;2023-03-21T06:04:57;45.87;;;19.87;;
40355;SDS011;26061;50.044;19.930;2023-03-21T06:08:21;41.83;;;20.43;;
40355;SDS011;26061;50.044;19.930;2023-03-21T06:11:47;37.43;;;16.97;;
40355;SDS011;26061;50.044;19.930;2023-03-21T06:15:11;32.97;;;16.27;;
40355;SDS011;26061;50.044;19.930;2023-03-21T06:18:36;33.03;;;15.02;;
40355;SDS011;26061;50.044;19.930;2023-03-21T06:21:24;29.20;;;13.60;;
40355;SDS011;26061;50.044;19.930;2023-03-21T06:24:48;24.17;;;13.97;;
40355;SDS011;26061;50.044;19.930;2023-03-21T06:28:13;25.90;;;13.63;;
40355;SDS011;26061;50.044;19.930;2023-03-21T06:31:37;23.13;;;12.33;;
40355;SDS011;26061;50.044;19.930;2023-03-21T06:35:02;21.92;;;11.70;;
40355;SDS011;26061;50.044;19.930;2023-03-21T06:38:26;21.98;;;10.63;;
40355;SDS011;26061;50.044;19.930;2023-03-21T06:41:50;20.92;;;10.63;;
40355;SDS011;26061;50.044;19.930;2023-03-21T06:45:15;20.02;;;10.38;;
40355;SDS011;26061;50.044;19.930;2023-03-21T06:48:27;23.40;;;11.18;;
40355;SDS011;26061;50.044;19.930;2023-03-21T06:51:51;21.77;;;11.33;;
40355;SDS011;26061;50.044;19.930;2023-03-21T06:55:16;18.67;;;10.73;;
40355;SDS011;26061;50.044;19.930;2023-03-21T06:58:40;21.10;;;10.52;;
40355;SDS011;26061;50.044;19.930;2023-03-21T07:02:06;21.38;;;10.25;;
40355;SDS011;26061;50.044;19.930;2023-03-21T07:05:34;19.33;;;10.13;;
40355;SDS011;26061;50.044;19.930;2023-03-21T07:08:58;18.70;;;9.75;;
40355;SDS011;26061;50.044;19.930;2023-03-21T07:12:22;19.33;;;10.10;;
40355;SDS011;26061;50.044;19.930;2023-03-21T07:15:47;18.60;;;10.27;;
40355;SDS011;26061;50.044;19.930;2023-03-21T07:19:08;22.27;;;10.23;;
40355;SDS011;26061;50.044;19.930;2023-03-21T07:21:58;19.50;;;10.80;;
40355;SDS011;26061;50.044;19.930;2023-03-21T07:25:22;22.35;;;11.38;;
40355;SDS011;26061;50.044;19.930;2023-03-21T07:28:47;22.33;;;11.48;;
40355;SDS011;26061;50.044;19.930;2023-03-21T07:32:11;22.73;;;11.75;;
40355;SDS011;26061;50.044;19.930;2023-03-21T07:35:36;22.45;;;11.45;;
40355;SDS011;26061;50.044;19.930;2023-03-21T07:39:01;24.13;;;12.52;;
40355;SDS011;26061;50.044;19.930;2023-03-21T07:42:25;23.40;;;12.82;;
40355;SDS011;26061;50.044;19.930;2023-03-21T07:45:38;22.83;;;12.35;;
40355;SDS011;26061;50.044;19.930;2023-03-21T07:48:59;26.15;;;14.23;;
40355;SDS011;26061;50.044;19.930;2023-03-21T07:52:23;29.40;;;14.77;;
40355;SDS011;26061;50.044;19.930;2023-03-21T07:55:54;28.15;;;13.77;;
40355;SDS011;26061;50.044;19.930;2023-03-21T07:59:18;28.77;;;14.02;;
40355;SDS011;26061;50.044;19.930;2023-03-21T08:02:49;31.15;;;15.52;;
40355;SDS011;26061;50.044;19.930;2023-03-21T08:06:15;31.20;;;15.32;;
40355;SDS011;26061;50.044;19.930;2023-03-21T08:09:39;29.13;;;14.75;;
40355;SDS011;26061;50.044;19.930;2023-03-21T08:13:09;28.35;;;15.60;;
40355;SDS011;26061;50.044;19.930;2023-03-21T08:16:30;31.73;;;16.98;;
40355;SDS011;26061;50.044;19.930;2023-03-21T08:19:54;30.30;;;16.10;;
40355;SDS011;26061;50.044;19.930;2023-03-21T08:23:20;30.20;;;15.93;;
40355;SDS011;26061;50.044;19.930;2023-03-21T08:26:44;29.13;;;14.25;;
40355;SDS011;26061;50.044;19.930;2023-03-21T08:30:10;29.95;;;15.38;;
40355;SDS011;26061;50.044;19.930;2023-03-21T08:33:35;28.35;;;14.57;;
40355;SDS011;26061;50.044;19.930;2023-03-21T08:37:00;30.67;;;15.18;;
40355;SDS011;26061;50.044;19.930;2023-03-21T08:40:26;32.65;;;15.25;;
40355;SDS011;26061;50.044;19.930;2023-03-21T08:43:51;33.63;;;16.20;;
40355;SDS011;26061;50.044;19.930;2023-03-21T08:47:15;28.95;;;15.13;;
40355;SDS011;26061;50.044;19.930;2023-03-21T08:50:39;31.33;;;15.75;;
40355;SDS011;26061;50.044;19.930;2023-03-21T08:54:05;33.25;;;16.67;;
40355;SDS011;26061;50.044;19.930;2023-03-21T08:57:13;29.35;;;15.13;;
40355;SDS011;26061;50.044;19.930;2023-03-21T09:00:26;41.47;;;16.27;;
40355;SDS011;26061;50.044;19.930;2023-03-21T09:03:02;29.73;;;16.33;;
40355;SDS011;26061;50.044;19.930;2023-03-21T09:05:29;32.80;;;16.92;;
40355;SDS011;26061;50.044;19.930;2023-03-21T09:08:54;33.80;;;16.45;;
40355;SDS011;26061;50.044;19.930;2023-03-21T09:11:32;34.20;;;17.33;;
40355;SDS011;26061;50.044;19.930;2023-03-21T09:14:57;33.38;;;17.23;;
40355;SDS011;26061;50.044;19.930;2023-03-21T09:18:18;31.80;;;17.45;;
40355;SDS011;26061;50.044;19.930;2023-03-21T09:21:43;27.98;;;14.57;;
40355;SDS011;26061;50.044;19.930;2023-03-21T09:24:09;31.92;;;16.98;;
40355;SDS011;26061;50.044;19.930;2023-03-21T09:26:42;33.92;;;17.30;;
40355;SDS011;26061;50.044;19.930;2023-03-21T09:29:10;33.13;;;16.30;;
40355;SDS011;26061;50.044;19.930;2023-03-21T09:31:36;31.02;;;16.95;;
40355;SDS011;26061;50.044;19.930;2023-03-21T09:34:04;28.80;;;16.60;;
40355;SDS011;26061;50.044;19.930;2023-03-21T09:36:41;30.60;;;16.50;;
40355;SDS011;26061;50.044;19.930;2023-03-21T09:39:12;26.33;;;15.10;;
40355;SDS011;26061;50.044;19.930;2023-03-21T09:47:51;25.73;;;15.15;;
40355;SDS011;26061;50.044;19.930;2023-03-21T09:50:19;30.25;;;16.00;;
40355;SDS011;26061;50.044;19.930;2023-03-21T09:53:18;26.27;;;15.70;;
40355;SDS011;26061;50.044;19.930;2023-03-21T09:56:46;25.95;;;14.15;;
40355;SDS011;26061;50.044;19.930;2023-03-21T09:59:46;27.00;;;14.07;;
40355;SDS011;26061;50.044;19.930;2023-03-21T10:02:43;24.65;;;13.90;;
40355;SDS011;26061;50.044;19.930;2023-03-21T10:05:52;19.35;;;11.93;;
40355;SDS011;26061;50.044;19.930;2023-03-21T10:09:22;20.90;;;11.07;;
40355;SDS011;26061;50.044;19.930;2023-03-21T10:12:51;17.13;;;10.52;;
40355;SDS011;26061;50.044;19.930;2023-03-21T10:16:41;17.13;;;10.07;;
40355;SDS011;26061;50.044;19.930;2023-03-21T10:22:54;19.85;;;10.93;;
40355;SDS011;26061;50.044;19.930;2023-03-21T10:25:41;20.75;;;12.18;;
40355;SDS011;26061;50.044;19.930;2023-03-21T10:29:08;21.88;;;12.23;;
40355;SDS011;26061;50.044;19.930;2023-03-21T10:32:35;19.67;;;11.23;;
40355;SDS011;26061;50.044;19.930;2023-03-21T10:36:07;19.67;;;11.23;;
40355;SDS011;26061;50.044;19.930;2023-03-21T10:39:39;18.88;;;11.43;;
40355;SDS011;26061;50.044;19.930;2023-03-21T10:46:54;20.58;;;11.93;;
40355;SDS011;26061;50.044;19.930;2023-03-21T10:50:19;19.73;;;11.82;;
40355;SDS011;26061;50.044;19.930;2023-03-21T10:52:50;19.38;;;11.40;;
40355;SDS011;26061;50.044;19.930;2023-03-21T10:56:18;20.77;;;11.85;;
40355;SDS011;26061;50.044;19.930;2023-03-21T11:03:20;22.88;;;12.93;;
40355;SDS011;26061;50.044;19.930;2023-03-21T11:07:19;19.77;;;11.05;;
40355;SDS011;26061;50.044;19.930;2023-03-21T11:14:36;23.13;;;11.65;;
40355;SDS011;26061;50.044;19.930;2023-03-21T11:18:19;25.10;;;13.85;;
40355;SDS011;26061;50.044;19.930;2023-03-21T11:21:42;21.52;;;12.90;;
40355;SDS011;26061;50.044;19.930;2023-03-21T11:25:09;25.33;;;15.68;;
40355;SDS011;26061;50.044;19.930;2023-03-21T11:28:36;26.23;;;14.73;;
40355;SDS011;26061;50.044;19.930;2023-03-21T11:32:12;27.27;;;14.57;;
40355;SDS011;26061;50.044;19.930;2023-03-21T11:35:42;28.45;;;15.32;;
40355;SDS011;26061;50.044;19.930;2023-03-21T11:42:41;22.55;;;12.00;;
40355;SDS011;26061;50.044;19.930;2023-03-21T11:46:12;21.75;;;11.50;;
40355;SDS011;26061;50.044;19.930;2023-03-21T11:49:36;20.65;;;11.90;;
40355;SDS011;26061;50.044;19.930;2023-03-21T11:53:04;18.67;;;9.75;;
40355;SDS011;26061;50.044;19.930;2023-03-21T11:56:44;16.85;;;10.20;;
40355;SDS011;26061;50.044;19.930;2023-03-21T12:00:21;14.82;;;8.85;;
40355;SDS011;26061;50.044;19.930;2023-03-21T12:04:12;14.65;;;9.02;;
40355;SDS011;26061;50.044;19.930;2023-03-21T12:11:40;10.93;;;6.38;;
40355;SDS011;26061;50.044;19.930;2023-03-21T12:23:23;11.63;;;7.57;;
40355;SDS011;26061;50.044;19.930;2023-03-21T12:34:26;14.30;;;9.25;;
40355;SDS011;26061;50.044;19.930;2023-03-21T12:38:14;15.45;;;8.95;;
40355;SDS011;26061;50.044;19.930;2023-03-21T12:45:31;15.10;;;7.78;;
40355;SDS011;26061;50.044;19.930;2023-03-21T12:49:07;13.50;;;7.53;;
40355;SDS011;26061;50.044;19.930;2023-03-21T12:52:38;12.48;;;7.70;;
40355;SDS011;26061;50.044;19.930;2023-03-21T12:56:08;11.45;;;7.38;;
40355;SDS011;26061;50.044;19.930;2023-03-21T12:59:07;11.73;;;7.53;;
40355;SDS011;26061;50.044;19.930;2023-03-21T13:02:57;14.32;;;8.05;;
40355;SDS011;26061;50.044;19.930;2023-03-21T13:06:30;18.45;;;10.43;;
40355;SDS011;26061;50.044;19.930;2023-03-21T13:09:46;18.63;;;10.23;;
40355;SDS011;26061;50.044;19.930;2023-03-21T13:22:56;14.07;;;9.35;;
40355;SDS011;26061;50.044;19.930;2023-03-21T13:26:44;14.02;;;8.45;;
40355;SDS011;26061;50.044;19.930;2023-03-21T13:33:44;17.63;;;10.02;;
40355;SDS011;26061;50.044;19.930;2023-03-21T13:37:12;16.23;;;9.90;;
40355;SDS011;26061;50.044;19.930;2023-03-21T13:40:51;15.15;;;9.60;;
40355;SDS011;26061;50.044;19.930;2023-03-21T13:47:56;17.42;;;8.85;;
40355;SDS011;26061;50.044;19.930;2023-03-21T13:54:54;15.30;;;9.40;;
40355;SDS011;26061;50.044;19.930;2023-03-21T13:57:51;13.15;;;8.90;;
40355;SDS011;26061;50.044;19.930;2023-03-21T14:00:56;17.52;;;10.30;;
40355;SDS011;26061;50.044;19.930;2023-03-21T14:03:59;17.90;;;10.07;;
40355;SDS011;26061;50.044;19.930;2023-03-21T14:07:45;16.85;;;9.52;;
40355;SDS011;26061;50.044;19.930;2023-03-21T14:13:23;11.93;;;8.32;;
40355;SDS011;26061;50.044;19.930;2023-03-21T14:16:54;10.75;;;7.63;;
40355;SDS011;26061;50.044;19.930;2023-03-21T14:23:20;12.98;;;7.35;;
40355;SDS011;26061;50.044;19.930;2023-03-21T14:26:47;12.93;;;7.07;;
40355;SDS011;26061;50.044;19.930;2023-03-21T14:30:29;10.93;;;7.70;;
40355;SDS011;26061;50.044;19.930;2023-03-21T14:33:56;13.57;;;8.15;;
40355;SDS011;26061;50.044;19.930;2023-03-21T14:37:25;13.50;;;8.93;;
40355;SDS011;26061;50.044;19.930;2023-03-21T14:40:57;15.63;;;9.40;;
40355;SDS011;26061;50.044;19.930;2023-03-21T14:51:18;18.63;;;12.93;;
40355;SDS011;26061;50.044;19.930;2023-03-21T14:54:55;14.35;;;9.30;;
40355;SDS011;26061;50.044;19.930;2023-03-21T14:57:46;14.15;;;8.63;;
40355;SDS011;26061;50.044;19.930;2023-03-21T15:01:16;14.75;;;8.40;;
40355;SDS011;26061;50.044;19.930;2023-03-21T15:04:53;11.60;;;7.57;;
40355;SDS011;26061;50.044;19.930;2023-03-21T15:07:24;11.43;;;7.75;;
40355;SDS011;26061;50.044;19.930;2023-03-21T15:10:54;14.10;;;9.02;;
40355;SDS011;26061;50.044;19.930;2023-03-21T15:14:23;16.58;;;8.10;;
40355;SDS011;26061;50.044;19.930;2023-03-21T15:17:39;11.13;;;7.75;;
40355;SDS011;26061;50.044;19.930;2023-03-21T15:21:06;13.35;;;8.85;;
40355;SDS011;26061;50.044;19.930;2023-03-21T15:24:41;13.02;;;8.52;;
40355;SDS011;26061;50.044;19.930;2023-03-21T15:28:08;14.63;;;9.23;;
40355;SDS011;26061;50.044;19.930;2023-03-21T15:31:37;18.05;;;10.50;;
40355;SDS011;26061;50.044;19.930;2023-03-21T15:35:04;20.17;;;12.60;;
40355;SDS011;26061;50.044;19.930;2023-03-21T15:38:35;27.13;;;15.32;;
40355;SDS011;26061;50.044;19.930;2023-03-21T15:42:04;15.38;;;9.63;;
40355;SDS011;26061;50.044;19.930;2023-03-21T15:45:30;15.73;;;9.27;;
40355;SDS011;26061;50.044;19.930;2023-03-21T15:52:49;22.08;;;12.73;;
40355;SDS011;26061;50.044;19.930;2023-03-21T15:56:15;20.42;;;11.30;;
40355;SDS011;26061;50.044;19.930;2023-03-21T15:59:47;21.65;;;12.07;;
40355;SDS011;26061;50.044;19.930;2023-03-21T16:03:23;19.63;;;11.32;;
40355;SDS011;26061;50.044;19.930;2023-03-21T16:10:44;16.77;;;10.60;;
40355;SDS011;26061;50.044;19.930;2023-03-21T16:14:12;17.58;;;10.38;;
40355;SDS011;26061;50.044;19.930;2023-03-21T16:17:36;19.58;;;11.48;;
40355;SDS011;26061;50.044;19.930;2023-03-21T16:21:01;23.42;;;12.98;;
40355;SDS011;26061;50.044;19.930;2023-03-21T16:24:26;21.85;;;12.52;;
40355;SDS011;26061;50.044;19.930;2023-03-21T16:26:52;18.90;;;12.27;;
40355;SDS011;26061;50.044;19.930;2023-03-21T16:29:18;26.40;;;14.57;;
40355;SDS011;26061;50.044;19.930;2023-03-21T16:31:44;24.92;;;15.05;;
40355;SDS011;26061;50.044;19.930;2023-03-21T16:34:12;26.17;;;14.65;;
40355;SDS011;26061;50.044;19.930;2023-03-21T16:36:38;32.00;;;15.80;;
40355;SDS011;26061;50.044;19.930;2023-03-21T16:39:14;26.15;;;15.43;;
40355;SDS011;26061;50.044;19.930;2023-03-21T16:41:46;30.92;;;15.25;;
40355;SDS011;26061;50.044;19.930;2023-03-21T16:44:12;23.42;;;13.93;;
40355;SDS011;26061;50.044;19.930;2023-03-21T16:46:37;18.67;;;11.45;;
40355;SDS011;26061;50.044;19.930;2023-03-21T16:49:03;17.45;;;9.73;;
40355;SDS011;26061;50.044;19.930;2023-03-21T16:51:30;14.23;;;9.23;;
40355;SDS011;26061;50.044;19.930;2023-03-21T16:54:01;14.82;;;9.35;;
40355;SDS011;26061;50.044;19.930;2023-03-21T16:56:45;17.77;;;9.77;;
40355;SDS011;26061;50.044;19.930;2023-03-21T16:59:36;14.38;;;9.02;;
40355;SDS011;26061;50.044;19.930;2023-03-21T17:02:13;16.35;;;9.48;;
40355;SDS011;26061;50.044;19.930;2023-03-21T17:04:41;14.00;;;9.32;;
40355;SDS011;26061;50.044;19.930;2023-03-21T17:07:09;15.65;;;8.90;;
40355;SDS011;26061;50.044;19.930;2023-03-21T17:09:39;23.55;;;12.40;;
40355;SDS011;26061;50.044;19.930;2023-03-21T17:12:12;21.67;;;11.48;;
40355;SDS011;26061;50.044;19.930;2023-03-21T17:14:40;16.25;;;10.25;;
40355;SDS011;26061;50.044;19.930;2023-03-21T17:17:11;16.08;;;9.57;;
40355;SDS011;26061;50.044;19.930;2023-03-21T17:19:38;14.23;;;9.57;;
40355;SDS011;26061;50.044;19.930;2023-03-21T17:22:04;12.05;;;8.68;;
40355;SDS011;26061;50.044;19.930;2023-03-21T17:24:30;13.70;;;9.07;;
40355;SDS011;26061;50.044;19.930;2023-03-21T17:26:57;13.57;;;9.23;;
40355;SDS011;26061;50.044;19.930;2023-03-21T17:29:25;14.15;;;9.25;;
40355;SDS011;26061;50.044;19.930;2023-03-21T17:31:51;17.10;;;9.65;;
40355;SDS011;26061;50.044;19.930;2023-03-21T17:34:17;18.08;;;9.25;;
40355;SDS011;26061;50.044;19.930;2023-03-21T17:36:43;15.40;;;8.55;;
40355;SDS011;26061;50.044;19.930;2023-03-21T17:39:20;19.60;;;10.32;;
40355;SDS011;26061;50.044;19.930;2023-03-21T17:41:51;15.25;;;9.57;;
40355;SDS011;26061;50.044;19.930;2023-03-21T17:44:18;15.45;;;9.18;;
40355;SDS011;26061;50.044;19.930;2023-03-21T17:46:45;17.95;;;8.98;;
40355;SDS011;26061;50.044;19.930;2023-03-21T17:49:12;20.42;;;8.75;;
40355;SDS011;26061;50.044;19.930;2023-03-21T17:51:40;12.57;;;7.75;;
40355;SDS011;26061;50.044;19.930;2023-03-21T17:54:06;10.93;;;7.60;;
40355;SDS011;26061;50.044;19.930;2023-03-21T17:56:32;12.70;;;7.88;;
40355;SDS011;26061;50.044;19.930;2023-03-21T17:59:00;12.75;;;7.53;;
40355;SDS011;26061;50.044;19.930;2023-03-21T18:01:28;14.13;;;8.80;;
40355;SDS011;26061;50.044;19.930;2023-03-21T18:03:55;16.15;;;9.43;;
40355;SDS011;26061;50.044;19.930;2023-03-21T18:06:22;14.75;;;8.80;;
40355;SDS011;26061;50.044;19.930;2023-03-21T18:08:50;15.45;;;9.40;;
40355;SDS011;26061;50.044;19.930;2023-03-21T18:11:17;16.38;;;9.63;;
40355;SDS011;26061;50.044;19.930;2023-03-21T18:13:44;14.57;;;9.18;;
40355;SDS011;26061;50.044;19.930;2023-03-21T18:16:14;15.32;;;9.38;;
40355;SDS011;26061;50.044;19.930;2023-03-21T18:18:42;13.77;;;8.98;;
40355;SDS011;26061;50.044;19.930;2023-03-21T18:21:09;15.35;;;8.68;;
40355;SDS011;26061;50.044;19.930;2023-03-21T18:23:36;14.85;;;9.93;;
40355;SDS011;26061;50.044;19.930;2023-03-21T18:26:03;15.60;;;9.63;;
40355;SDS011;26061;50.044;19.930;2023-03-21T18:28:29;16.23;;;9.07;;
40355;SDS011;26061;50.044;19.930;2023-03-21T18:30:55;18.40;;;10.05;;
40355;SDS011;26061;50.044;19.930;2023-03-21T18:33:21;17.48;;;10.45;;
40355;SDS011;26061;50.044;19.930;2023-03-21T18:35:46;15.67;;;9.87;;
40355;SDS011;26061;50.044;19.930;2023-03-21T18:38:12;18.80;;;10.93;;
40355;SDS011;26061;50.044;19.930;2023-03-21T18:40:41;15.32;;;9.75;;
40355;SDS011;26061;50.044;19.930;2023-03-21T18:43:06;15.57;;;9.38;;
40355;SDS011;26061;50.044;19.930;2023-03-21T18:45:32;17.10;;;10.75;;
40355;SDS011;26061;50.044;19.930;2023-03-21T18:47:58;23.65;;;13.18;;
40355;SDS011;26061;50.044;19.930;2023-03-21T18:50:24;21.42;;;12.15;;
40355;SDS011;26061;50.044;19.930;2023-03-21T18:52:50;21.52;;;14.00;;
40355;SDS011;26061;50.044;19.930;2023-03-21T18:55:17;23.25;;;13.65;;
40355;SDS011;26061;50.044;19.930;2023-03-21T18:57:42;19.98;;;12.93;;
40355;SDS011;26061;50.044;19.930;2023-03-21T19:00:10;25.17;;;14.38;;
40355;SDS011;26061;50.044;19.930;2023-03-21T19:02:42;24.30;;;13.90;;
40355;SDS011;26061;50.044;19.930;2023-03-21T19:05:09;22.88;;;12.77;;
40355;SDS011;26061;50.044;19.930;2023-03-21T19:07:35;19.17;;;11.15;;
40355;SDS011;26061;50.044;19.930;2023-03-21T19:10:02;17.65;;;10.93;;
40355;SDS011;26061;50.044;19.930;2023-03-21T19:12:28;21.27;;;10.98;;
40355;SDS011;26061;50.044;19.930;2023-03-21T19:14:54;23.88;;;12.57;;
40355;SDS011;26061;50.044;19.930;2023-03-21T19:17:21;23.98;;;13.65;;
40355;SDS011;26061;50.044;19.930;2023-03-21T19:19:47;23.60;;;13.65;;
40355;SDS011;26061;50.044;19.930;2023-03-21T19:22:14;18.87;;;11.50;;
40355;SDS011;26061;50.044;19.930;2023-03-21T19:24:40;16.40;;;10.53;;
40355;SDS011;26061;50.044;19.930;2023-03-21T19:27:07;19.90;;;11.30;;
40355;SDS011;26061;50.044;19.930;2023-03-21T19:29:34;24.05;;;12.95;;
40355;SDS011;26061;50.044;19.930;2023-03-21T19:32:00;23.02;;;12.73;;
40355;SDS011;26061;50.044;19.930;2023-03-21T19:34:25;20.95;;;12.43;;
40355;SDS011;26061;50.044;19.930;2023-03-21T19:36:52;23.13;;;12.93;;
40355;SDS011;26061;50.044;19.930;2023-03-21T19:39:19;25.05;;;13.55;;
40355;SDS011;26061;50.044;19.930;2023-03-21T19:41:47;31.98;;;14.88;;
40355;SDS011;26061;50.044;19.930;2023-03-21T19:44:12;24.77;;;14.00;;
40355;SDS011;26061;50.044;19.930;2023-03-21T19:46:38;25.92;;;13.18;;
40355;SDS011;26061;50.044;19.930;2023-03-21T19:49:04;25.80;;;14.95;;
40355;SDS011;26061;50.044;19.930;2023-03-21T19:51:30;26.27;;;15.10;;
40355;SDS011;26061;50.044;19.930;2023-03-21T19:53:57;30.10;;;16.10;;
40355;SDS011;26061;50.044;19.930;2023-03-21T19:56:23;37.10;;;18.02;;
40355;SDS011;26061;50.044;19.930;2023-03-21T19:58:49;26.00;;;15.33;;
40355;SDS011;26061;50.044;19.930;2023-03-21T20:01:16;27.35;;;14.25;;
40355;SDS011;26061;50.044;19.930;2023-03-21T20:03:41;23.10;;;13.53;;
40355;SDS011;26061;50.044;19.930;2023-03-21T20:06:09;26.73;;;13.57;;